createdAt,value
2023-04-08T00:00:52.452Z,5.68
2023-04-08T00:05:53.991Z,5.64
2023-04-08T00:10:55.711Z,5.59
2023-04-08T00:15:57.806Z,5.61
2023-04-08T00:20:59.947Z,5.64
2023-04-08T00:26:01.478Z,5.58
2023-04-08T00:31:02.973Z,5.49
2023-04-08T00:36:04.787Z,5.43
2023-04-08T00:41:06.456Z,5.35
2023-04-08T00:46:09.319Z,5.26
2023-04-08T00:51:11.229Z,5.13
2023-04-08T00:56:12.793Z,4.98
2023-04-08T01:01:41.147Z,4.91
2023-04-08T01:07:16.688Z,4.83
2023-04-08T01:12:27.308Z,4.78
2023-04-08T01:17:30.692Z,4.66
2023-04-08T01:23:00.447Z,4.49
2023-04-08T01:28:06.073Z,4.29
2023-04-08T01:33:08.522Z,4.08
2023-04-08T01:38:14.111Z,3.88
2023-04-08T01:43:17.924Z,3.72
2023-04-08T01:48:19.424Z,3.63
2023-04-08T01:53:21.705Z,3.56
2023-04-08T01:58:26.495Z,3.48
2023-04-08T02:03:29.958Z,3.31
2023-04-08T02:08:35.022Z,3.13
2023-04-08T02:13:36.607Z,2.97
2023-04-08T02:18:49.569Z,2.82
2023-04-08T02:23:51.395Z,2.82
2023-04-08T02:28:55.337Z,2.86
2023-04-08T02:33:58.117Z,2.79
2023-04-08T02:38:59.658Z,2.64
2023-04-08T02:44:01.193Z,2.49
2023-04-08T02:49:02.732Z,2.40
2023-04-08T02:54:04.282Z,2.38
2023-04-08T02:59:05.764Z,2.43
2023-04-08T03:04:07.250Z,2.53
2023-04-08T03:09:09.669Z,2.54
2023-04-08T03:14:11.166Z,2.44
2023-04-08T03:19:12.671Z,2.38
2023-04-08T03:24:14.211Z,2.35
2023-04-08T03:29:15.694Z,2.35
2023-04-08T03:34:17.189Z,2.32
2023-04-08T03:39:19.368Z,2.25
2023-04-08T03:44:20.839Z,2.16
2023-04-08T03:49:22.529Z,2.13
2023-04-08T03:54:24.015Z,2.16
2023-04-08T03:59:25.839Z,2.15
2023-04-08T04:04:27.479Z,2.05
2023-04-08T04:09:29.280Z,1.94
2023-04-08T04:14:30.836Z,1.90
2023-04-08T04:19:32.592Z,1.92
2023-04-08T04:24:34.099Z,1.95
2023-04-08T04:29:35.863Z,2.03
2023-04-08T04:34:37.366Z,2.05
2023-04-08T04:39:38.858Z,2.04
2023-04-08T04:44:40.392Z,2.07
2023-04-08T04:49:42.171Z,2.19
2023-04-08T04:54:43.989Z,2.32
2023-04-08T04:59:45.503Z,2.44
2023-04-08T05:04:47.043Z,2.54
2023-04-08T05:09:48.882Z,2.68
2023-04-08T05:14:50.431Z,2.83
2023-04-08T05:19:53.405Z,2.98
2023-04-08T05:24:54.906Z,3.09
2023-04-08T05:29:56.376Z,3.20
2023-04-08T05:34:57.848Z,3.28
2023-04-08T05:39:59.335Z,3.37
2023-04-08T05:45:01.132Z,3.51
2023-04-08T05:50:02.737Z,3.67
2023-04-08T05:55:06.277Z,3.82
2023-04-08T06:00:10.493Z,3.96
2023-04-08T06:05:12.146Z,4.07
2023-04-08T06:10:13.767Z,4.23
2023-04-08T06:15:16.683Z,4.33
2023-04-08T06:20:18.242Z,4.47
2023-04-08T06:25:19.734Z,4.72
2023-04-08T06:30:28.107Z,4.91
2023-04-08T06:35:29.850Z,5.10
2023-04-08T06:40:31.388Z,5.17
2023-04-08T06:45:32.948Z,5.34
2023-04-08T06:50:34.616Z,5.50
2023-04-08T06:55:36.102Z,5.62
2023-04-08T07:00:39.047Z,5.78
2023-04-08T07:05:42.235Z,5.86
2023-04-08T07:10:44.916Z,5.98
2023-04-08T07:15:46.858Z,6.12
2023-04-08T07:20:53.980Z,6.23
2023-04-08T07:25:55.520Z,6.39
2023-04-08T07:30:57.490Z,6.52
2023-04-08T07:35:59.645Z,6.64
2023-04-08T07:41:01.422Z,6.80
2023-04-08T07:46:07.278Z,6.98
2023-04-08T07:51:11.375Z,7.10
2023-04-08T07:56:14.898Z,7.16
2023-04-08T08:01:19.061Z,7.26
2023-04-08T08:06:20.923Z,7.41
2023-04-08T08:11:22.715Z,7.56
2023-04-08T08:16:27.402Z,7.76
2023-04-08T08:21:29.065Z,7.86
2023-04-08T08:26:30.972Z,7.90
2023-04-08T08:31:32.486Z,7.95
2023-04-08T08:36:34.896Z,8.03
2023-04-08T08:41:37.824Z,8.16
2023-04-08T08:46:46.926Z,8.28
2023-04-08T08:51:49.110Z,8.36
2023-04-08T08:56:50.634Z,8.45
2023-04-08T09:01:52.204Z,8.52
2023-04-08T09:07:10.742Z,8.62
2023-04-08T09:12:12.249Z,8.82
2023-04-08T09:17:14.620Z,8.90
2023-04-08T09:22:16.563Z,9.03
2023-04-08T09:27:34.318Z,9.13
2023-04-08T09:33:07.154Z,9.25
2023-04-08T09:38:09.562Z,9.36
2023-04-08T09:43:13.713Z,9.44
2023-04-08T09:48:27.140Z,9.53
2023-04-08T09:53:38.319Z,9.42
2023-04-08T09:58:46.275Z,9.49
2023-04-08T10:03:52.786Z,9.52
2023-04-08T10:08:56.566Z,9.62
2023-04-08T10:13:58.116Z,9.76
2023-04-08T10:19:00.098Z,9.87
2023-04-08T10:24:11.996Z,9.92
2023-04-08T10:29:19.702Z,9.94
2023-04-08T10:34:25.026Z,9.99
2023-04-08T10:39:27.472Z,10.12
2023-04-08T10:44:29.093Z,10.29
2023-04-08T10:49:34.877Z,10.30
2023-04-08T10:54:38.566Z,10.36
2023-04-08T10:59:40.118Z,10.35
2023-04-08T11:04:43.040Z,10.46
2023-04-08T11:09:44.988Z,10.54
2023-04-08T11:14:47.802Z,10.63
2023-04-08T11:19:50.478Z,10.77
2023-04-08T11:24:52.260Z,10.88
2023-04-08T11:29:57.475Z,11.01
2023-04-08T11:35:04.590Z,11.10
2023-04-08T11:40:12.898Z,11.19
2023-04-08T11:45:16.671Z,11.29
2023-04-08T11:50:25.904Z,11.47
2023-04-08T11:55:28.704Z,11.62
2023-04-08T12:00:37.784Z,11.76
2023-04-08T12:05:39.618Z,11.97
2023-04-08T12:10:41.397Z,12.09
2023-04-08T12:15:43.011Z,12.19
2023-04-08T12:20:44.527Z,12.39
2023-04-08T12:25:46.030Z,12.54
2023-04-08T12:30:47.936Z,12.86
2023-04-08T12:35:49.569Z,13.19
2023-04-08T12:40:51.204Z,13.49
2023-04-08T12:45:52.753Z,13.73
2023-04-08T12:50:54.392Z,13.91
2023-04-08T12:55:57.537Z,13.90
2023-04-08T13:00:59.081Z,13.79
2023-04-08T13:06:00.645Z,13.92
2023-04-08T13:11:02.252Z,13.92
2023-04-08T13:16:04.195Z,14.16
2023-04-08T13:21:06.145Z,14.22
2023-04-08T13:26:07.893Z,14.34
2023-04-08T13:31:09.440Z,14.21
2023-04-08T13:36:10.939Z,14.25
2023-04-08T13:41:12.451Z,14.27
2023-04-08T13:46:14.038Z,14.21
2023-04-08T13:51:15.655Z,14.19
2023-04-08T13:56:17.120Z,14.08
2023-04-08T14:01:18.681Z,14.11
2023-04-08T14:06:20.311Z,14.02
2023-04-08T14:11:21.869Z,14.07
2023-04-08T14:16:23.423Z,14.13
2023-04-08T14:21:24.951Z,14.15
2023-04-08T14:26:27.272Z,14.05
2023-04-08T14:31:29.117Z,13.96
2023-04-08T14:36:31.721Z,13.84
2023-04-08T14:41:33.274Z,13.65
2023-04-08T14:46:34.916Z,13.53
2023-04-08T14:51:38.094Z,13.45
2023-04-08T14:56:42.645Z,13.34
2023-04-08T15:01:45.104Z,13.15
2023-04-08T15:06:46.964Z,12.94
2023-04-08T15:11:48.542Z,12.85
2023-04-08T15:16:50.240Z,12.77
2023-04-08T15:21:51.748Z,12.67
2023-04-08T15:26:56.299Z,12.55
2023-04-08T15:31:57.947Z,12.49
2023-04-08T15:36:59.468Z,12.45
2023-04-08T15:42:01.571Z,12.41
2023-04-08T15:47:03.467Z,12.34
2023-04-08T15:52:05.945Z,12.24
2023-04-08T15:57:07.435Z,12.18
2023-04-08T16:02:09.020Z,12.14
2023-04-08T16:07:11.065Z,12.09
2023-04-08T16:12:14.771Z,12.05
2023-04-08T16:17:16.563Z,12.00
2023-04-08T16:22:18.287Z,11.94
2023-04-08T16:27:19.796Z,11.87
2023-04-08T16:32:21.515Z,11.82
2023-04-08T16:37:23.028Z,11.77
2023-04-08T16:42:24.922Z,11.69
2023-04-08T16:47:27.615Z,11.64
2023-04-08T16:52:29.256Z,11.56
2023-04-08T16:57:31.058Z,11.50
2023-04-08T17:02:32.930Z,11.43
2023-04-08T17:07:34.545Z,11.37
2023-04-08T17:12:36.371Z,11.29
2023-04-08T17:17:39.594Z,11.19
2023-04-08T17:22:41.278Z,11.12
2023-04-08T17:27:42.792Z,11.03
2023-04-08T17:32:44.350Z,10.94
2023-04-08T17:37:46.023Z,10.87
2023-04-08T17:42:47.627Z,10.81
2023-04-08T17:47:49.288Z,10.75
2023-04-08T17:52:51.101Z,10.67
2023-04-08T17:57:52.872Z,10.60
2023-04-08T18:02:54.715Z,10.48
2023-04-08T18:07:59.400Z,10.40
2023-04-08T18:13:11.304Z,10.30
2023-04-08T18:18:18.571Z,10.22
2023-04-08T18:23:20.290Z,10.14
2023-04-08T18:28:22.888Z,10.05
2023-04-08T18:33:24.428Z,9.98
2023-04-08T18:38:25.901Z,9.88
2023-04-08T18:43:28.746Z,9.77
2023-04-08T18:48:30.512Z,9.71
2023-04-08T18:53:38.654Z,9.65
2023-04-08T18:58:40.267Z,9.54
2023-04-08T19:03:43.929Z,9.44
2023-04-08T19:08:48.223Z,9.36
2023-04-08T19:13:52.302Z,9.25
2023-04-08T19:18:55.000Z,9.13
2023-04-08T19:23:57.285Z,9.11
2023-04-08T19:28:58.744Z,9.13
2023-04-08T19:34:02.409Z,9.11
2023-04-08T19:39:11.784Z,9.06
2023-04-08T19:44:21.810Z,9.02
2023-04-08T19:49:24.480Z,8.98
2023-04-08T19:54:25.963Z,9.01
2023-04-08T19:59:27.526Z,9.09
2023-04-08T20:04:29.457Z,9.11
2023-04-08T20:09:32.675Z,9.11
2023-04-08T20:14:35.890Z,9.09
2023-04-08T20:19:37.559Z,9.06
2023-04-08T20:24:39.066Z,9.00
2023-04-08T20:29:42.717Z,8.97
2023-04-08T20:34:44.724Z,8.96
2023-04-08T20:39:46.518Z,8.92
2023-04-08T20:44:49.134Z,8.89
2023-04-08T20:49:50.663Z,8.81
2023-04-08T20:54:52.447Z,8.74
2023-04-08T20:59:56.119Z,8.69
2023-04-08T21:04:57.520Z,8.63
2023-04-08T21:09:59.260Z,8.58
2023-04-08T21:15:01.197Z,8.53
2023-04-08T21:20:03.077Z,8.54
2023-04-08T21:25:05.605Z,8.56
2023-04-08T21:30:07.881Z,8.55
2023-04-08T21:35:10.547Z,8.53
2023-04-08T21:40:13.501Z,8.46
2023-04-08T21:45:15.867Z,8.40
2023-04-08T21:50:17.433Z,8.37
2023-04-08T21:55:19.577Z,8.35
2023-04-08T22:00:21.178Z,8.34
2023-04-08T22:05:23.581Z,8.34
2023-04-08T22:10:25.801Z,8.33
2023-04-08T22:15:27.983Z,8.27
2023-04-08T22:20:29.531Z,8.23
2023-04-08T22:25:31.075Z,8.24
2023-04-08T22:30:32.840Z,8.28
2023-04-08T22:35:35.794Z,8.32
2023-04-08T22:40:37.438Z,8.34
2023-04-08T22:45:38.949Z,8.31
2023-04-08T22:50:41.272Z,8.30
2023-04-08T22:55:42.815Z,8.32
2023-04-08T23:00:51.202Z,8.32
2023-04-08T23:05:52.813Z,8.31
2023-04-08T23:10:55.093Z,8.31
2023-04-08T23:15:57.653Z,8.30
2023-04-08T23:20:59.259Z,8.32
2023-04-08T23:26:00.866Z,8.33
2023-04-08T23:31:05.242Z,8.35
2023-04-08T23:36:08.626Z,8.35
2023-04-08T23:41:10.291Z,8.32
2023-04-08T23:46:11.815Z,8.32
2023-04-08T23:51:13.619Z,8.31
2023-04-08T23:56:15.528Z,8.31
